Time;durP1;ratioP1;P1;durP2;ratioP2;P2;SDS_P1;SDS_P2;PMS_P1;PMS_P2;Temp;Humidity;BMP_temperature;BMP_pressure;BME280_temperature;BME280_humidity;BME280_pressure;Samples;Min_cycle;Max_cycle;Signal;HPM_P1;HPM_P2
2023/05/30 00:00:57;;;;;;;13.10;3.75;;;;;;;9.12;100.00;102650.66;5115199;28;20110;-52
2023/05/30 00:03:23;;;;;;;17.70;4.63;;;;;;;9.14;100.00;102651.53;5133391;27;20524;-49
2023/05/30 00:05:48;;;;;;;17.35;5.20;;;;;;;9.45;100.00;102705.94;5114866;28;20466;-52
2023/05/30 00:08:13;;;;;;;11.38;4.32;;;;;;;9.33;100.00;102695.41;5105140;28;20039;-50
2023/05/30 00:10:39;;;;;;;15.23;4.78;;;;;;;9.35;100.00;102697.16;5133236;28;20058;-53
2023/05/30 00:13:04;;;;;;;16.60;4.55;;;;;;;9.23;100.00;102681.34;5095678;28;20024;-49
2023/05/30 00:15:31;;;;;;;20.60;4.85;;;;;;;9.28;100.00;102699.78;5109092;28;20070;-50
2023/05/30 00:17:58;;;;;;;16.98;4.90;;;;;;;9.36;100.00;102706.81;5133216;28;20061;-50
2023/05/30 00:20:23;;;;;;;14.55;4.70;;;;;;;8.91;100.00;102634.00;5133339;28;20031;-49
2023/05/30 00:22:49;;;;;;;14.93;5.05;;;;;;;9.33;100.00;102711.16;5114514;28;20382;-52
2023/05/30 00:25:16;;;;;;;18.50;4.88;;;;;;;9.29;100.00;102710.28;5108145;28;20478;-52
2023/05/30 00:27:41;;;;;;;14.50;4.53;;;;;;;9.28;100.00;102728.69;5112389;28;20499;-53
2023/05/30 00:30:07;;;;;;;17.85;4.43;;;;;;;9.29;100.00;102731.28;5112533;28;20140;-51
2023/05/30 00:32:33;;;;;;;14.13;4.35;;;;;;;9.24;100.00;102719.03;5112618;28;20046;-52
2023/05/30 00:34:59;;;;;;;10.93;4.10;;;;;;;9.27;100.00;102724.28;5112465;28;20067;-53
2023/05/30 00:37:25;;;;;;;17.27;4.32;;;;;;;9.07;100.00;102704.97;5112509;28;20036;-54
2023/05/30 00:39:50;;;;;;;12.15;5.35;;;;;;;9.23;100.00;102731.28;5112182;28;20028;-55
2023/05/30 00:42:15;;;;;;;12.30;4.82;;;;;;;9.20;100.00;102728.63;5112290;28;20055;-53
2023/05/30 00:44:41;;;;;;;14.82;4.95;;;;;;;9.21;100.00;102729.53;5115194;28;20490;-56
2023/05/30 00:47:06;;;;;;;13.18;4.10;;;;;;;9.15;100.00;102727.75;5112376;28;20043;-51
2023/05/30 00:49:32;;;;;;;14.75;4.50;;;;;;;9.20;100.00;102735.63;5094122;28;20063;-52
2023/05/30 00:51:58;;;;;;;17.02;4.80;;;;;;;9.18;100.00;102727.75;5094087;28;20040;-52
2023/05/30 00:54:23;;;;;;;23.15;5.05;;;;;;;8.79;100.00;102659.31;5112242;28;20428;-54
2023/05/30 00:56:50;;;;;;;15.65;4.57;;;;;;;9.18;100.00;102735.66;5112068;28;20031;-49
2023/05/30 00:59:16;;;;;;;15.18;4.78;;;;;;;9.17;100.00;102730.38;5094171;28;20495;-53
2023/05/30 01:01:43;;;;;;;16.20;4.13;;;;;;;8.83;100.00;102671.59;5095065;28;20028;-53
2023/05/30 01:04:09;;;;;;;14.82;4.82;;;;;;;9.12;100.00;102726.84;5093970;28;20073;-53
2023/05/30 01:06:37;;;;;;;14.73;3.58;;;;;;;8.68;100.00;102653.16;5112300;28;20123;-53
2023/05/30 01:09:04;;;;;;;14.00;4.70;;;;;;;9.06;100.00;102730.34;5112044;28;20054;-52
2023/05/30 01:11:53;;;;;;;12.85;4.57;;;;;;;9.05;100.00;102737.34;5111846;28;20085;-51
2023/05/30 01:14:39;;;;;;;13.75;4.53;;;;;;;9.04;100.00;102738.22;5093752;28;20446;-53
2023/05/30 01:17:16;;;;;;;15.32;4.75;;;;;;;9.05;100.00;102731.19;5112094;28;20055;-54
2023/05/30 01:20:10;;;;;;;13.38;4.78;;;;;;;8.61;100.00;102652.25;5113966;28;20535;-51
2023/05/30 01:22:53;;;;;;;21.45;5.53;;;;;;;9.04;100.00;102718.97;5098502;28;20062;-54
2023/05/30 01:25:29;;;;;;;14.25;4.05;;;;;;;8.62;100.00;102654.00;5115225;28;20426;-52
2023/05/30 01:28:12;;;;;;;13.45;5.20;;;;;;;8.44;100.00;102623.31;5115526;28;20031;-52
2023/05/30 01:30:44;;;;;;;11.90;4.70;;;;;;;8.97;100.00;102717.16;5115940;28;20034;-55
2023/05/30 01:33:10;;;;;;;14.90;4.28;;;;;;;9.00;100.00;102723.31;5118916;27;20027;-56
2023/05/30 01:35:35;;;;;;;14.60;4.47;;;;;;;8.97;100.00;102712.81;5111817;27;20027;-57
2023/05/30 01:38:01;;;;;;;16.23;4.85;;;;;;;8.70;100.00;102678.53;5135993;27;20035;-52
2023/05/30 01:40:28;;;;;;;13.20;4.38;;;;;;;8.73;100.00;102680.28;5117918;27;20039;-54
2023/05/30 01:43:21;;;;;;;10.85;4.10;;;;;;;8.97;100.00;102725.06;5117194;27;20059;-56
2023/05/30 01:45:57;;;;;;;17.23;4.97;;;;;;;8.91;100.00;102727.66;5117406;27;20031;-54
2023/05/30 01:48:40;;;;;;;18.70;4.82;;;;;;;8.41;100.00;102632.91;5135831;27;20027;-51
2023/05/30 01:51:11;;;;;;;16.10;4.63;;;;;;;8.88;100.00;102723.25;5094400;28;20028;-52
2023/05/30 01:53:38;;;;;;;;;;;;;;;8.92;100.00;102722.41;5097375;28;20467;-51
2023/05/30 01:56:05;;;;;;;16.50;5.00;;;;;;;8.33;100.00;102638.13;5096760;28;19915;-55
2023/05/30 01:58:32;;;;;;;15.73;4.50;;;;;;;8.85;100.00;102736.38;5096857;28;20106;-52
2023/05/30 02:00:58;;;;;;;12.95;4.15;;;;;;;8.84;100.00;102744.25;5096617;28;20050;-52
2023/05/30 02:03:24;;;;;;;11.63;4.38;;;;;;;8.74;100.00;102719.69;5096828;28;20222;-49
2023/05/30 02:05:50;;;;;;;11.95;4.85;;;;;;;8.83;100.00;102742.50;5114898;28;20034;-50
2023/05/30 02:08:15;;;;;;;15.75;5.38;;;;;;;8.48;100.00;102664.44;5117602;27;20036;-54
2023/05/30 02:10:40;;;;;;;16.15;6.00;;;;;;;8.40;100.00;102654.78;5096656;28;20493;-50
2023/05/30 02:13:06;;;;;;;20.70;5.50;;;;;;;8.52;100.00;102667.09;5114808;28;20084;-50
2023/05/30 02:15:31;;;;;;;12.43;4.90;;;;;;;8.86;100.00;102737.25;5114497;28;20078;-53
2023/05/30 02:17:59;;;;;;;21.27;6.63;;;;;;;8.77;100.00;102717.09;5114988;28;20096;-54
2023/05/30 02:20:24;;;;;;;14.05;5.82;;;;;;;8.66;100.00;102695.16;5114357;28;20046;-57
2023/05/30 02:22:50;;;;;;;18.67;6.13;;;;;;;8.51;100.00;102668.84;5117093;27;20031;-55
2023/05/30 02:25:15;;;;;;;14.68;5.60;;;;;;;8.92;100.00;102751.31;5134156;27;20067;-54
2023/05/30 02:27:41;;;;;;;11.10;5.43;;;;;;;8.93;100.00;102750.41;5135063;27;20366;-56
2023/05/30 02:30:07;;;;;;;16.23;6.22;;;;;;;8.98;100.00;102740.84;5134815;27;20046;-53
2023/05/30 02:32:32;;;;;;;15.40;5.88;;;;;;;9.03;100.00;102735.59;5099304;27;20027;-57
2023/05/30 02:34:58;;;;;;;12.02;5.47;;;;;;;9.02;100.00;102718.06;5134492;27;20054;-54
2023/05/30 02:37:23;;;;;;;15.77;5.95;;;;;;;8.78;100.00;102662.84;5134844;27;20035;-51
2023/05/30 02:39:48;;;;;;;14.38;5.60;;;;;;;9.27;100.00;102738.31;5131109;27;20043;-49
2023/05/30 02:42:14;;;;;;;16.48;5.38;;;;;;;9.35;100.00;102741.81;5114344;27;20036;-51
2023/05/30 02:44:39;;;;;;;12.65;5.10;;;;;;;8.95;100.00;102656.78;5096044;28;20023;-54
2023/05/30 02:47:05;;;;;;;11.43;5.00;;;;;;;9.11;100.00;102672.59;5113920;28;20042;-53
2023/05/30 02:49:31;;;;;;;17.17;6.22;;;;;;;9.61;100.00;102752.41;5095536;28;20119;-52
2023/05/30 02:51:56;;;;;;;16.70;5.72;;;;;;;9.67;100.00;102755.03;5113911;28;20031;-56
2023/05/30 02:54:23;;;;;;;16.75;5.95;;;;;;;9.30;100.00;102674.38;5113714;28;20278;-52
2023/05/30 02:56:48;;;;;;;18.13;5.60;;;;;;;9.38;100.00;102684.03;5117486;27;20083;-53
2023/05/30 02:59:13;;;;;;;15.50;6.72;;;;;;;9.84;100.00;102755.94;5134267;27;20027;-57
2023/05/30 03:01:39;;;;;;;15.32;5.07;;;;;;;9.89;100.00;102745.44;5134146;27;20134;-51
2023/05/30 03:04:04;;;;;;;15.02;6.15;;;;;;;9.94;100.00;102751.56;5134094;27;20458;-51
2023/05/30 03:06:31;;;;;;;10.43;5.35;;;;;;;9.99;100.00;102749.81;5134057;27;20031;-50
2023/05/30 03:09:00;;;;;;;14.50;5.40;;;;;;;9.88;100.00;102728.78;5134378;27;20042;-54
2023/05/30 03:11:26;;;;;;;16.05;5.18;;;;;;;10.10;100.00;102741.03;5134262;27;20391;-51
2023/05/30 03:13:51;;;;;;;12.50;5.00;;;;;;;10.13;100.00;102754.22;5111237;27;20039;-50
2023/05/30 03:16:16;;;;;;;13.02;5.20;;;;;;;10.19;100.00;102763.03;5134049;27;20038;-50
2023/05/30 03:18:42;;;;;;;14.77;5.20;;;;;;;10.20;100.00;102735.81;5133812;27;20131;-50
2023/05/30 03:21:08;;;;;;;14.90;4.97;;;;;;;9.81;100.00;102670.88;5116088;27;20452;-49
2023/05/30 03:23:33;;;;;;;15.13;5.22;;;;;;;9.80;100.00;102670.03;5133759;27;20118;-50
2023/05/30 03:25:59;;;;;;;15.98;5.70;;;;;;;10.26;100.00;102747.22;5133936;27;20188;-51
2023/05/30 03:28:24;;;;;;;14.25;5.53;;;;;;;10.25;100.00;102741.94;5133843;27;20035;-52
2023/05/30 03:30:50;;;;;;;12.82;5.35;;;;;;;9.70;100.00;102643.72;5130437;27;20035;-53
2023/05/30 03:33:15;;;;;;;14.98;4.53;;;;;;;9.92;100.00;102692.84;5115812;27;20367;-52
2023/05/30 03:35:42;;;;;;;12.43;5.10;;;;;;;10.35;100.00;102746.31;5115424;27;20035;-52
2023/05/30 03:38:08;;;;;;;10.73;4.57;;;;;;;10.27;100.00;102735.81;5133641;27;20393;-51
2023/05/30 03:40:33;;;;;;;16.17;4.93;;;;;;;10.37;100.00;102761.25;5133746;27;20055;-51
2023/05/30 03:42:59;;;;;;;12.25;4.85;;;;;;;10.38;100.00;102756.84;5114913;27;20589;-52
2023/05/30 03:45:24;;;;;;;12.63;5.28;;;;;;;10.03;100.00;102698.97;5133687;27;20039;-54
2023/05/30 03:47:50;;;;;;;12.73;5.13;;;;;;;10.05;100.00;102690.19;5100915;28;20388;-57
2023/05/30 03:50:15;;;;;;;13.18;5.57;;;;;;;10.45;100.00;102761.25;5094981;28;20076;-50
2023/05/30 03:52:40;;;;;;;10.20;5.22;;;;;;;10.46;100.00;102762.97;5112683;28;20039;-49
2023/05/30 03:55:06;;;;;;;10.77;4.43;;;;;;;10.52;100.00;102760.34;5112501;28;20051;-49
2023/05/30 03:57:31;;;;;;;8.98;5.03;;;;;;;10.56;100.00;102767.38;5112672;28;20058;-50
2023/05/30 03:59:57;;;;;;;12.75;5.68;;;;;;;10.63;100.00;102783.13;5113038;28;20585;-52
2023/05/30 04:02:22;;;;;;;11.93;4.85;;;;;;;10.44;100.00;102746.31;5094453;28;20035;-51
2023/05/30 04:04:47;;;;;;;9.52;5.30;;;;;;;10.43;100.00;102741.91;5098330;28;20243;-52
2023/05/30 04:07:13;;;;;;;17.80;5.95;;;;;;;10.66;100.00;102795.41;5112768;28;20036;-51
2023/05/30 04:09:38;;;;;;;16.35;5.75;;;;;;;10.68;100.00;102783.16;5112663;28;20475;-50
2023/05/30 04:12:04;;;;;;;9.60;4.93;;;;;;;10.23;100.00;102698.97;5112524;28;20076;-52
2023/05/30 04:14:29;;;;;;;14.45;5.72;;;;;;;10.56;100.00;102749.81;5094515;28;20094;-50
2023/05/30 04:16:54;;;;;;;14.10;6.03;;;;;;;10.65;100.00;102770.84;5094234;28;20035;-51
2023/05/30 04:19:20;;;;;;;11.18;6.57;;;;;;;10.68;100.00;102786.63;5094482;28;20035;-51
2023/05/30 04:21:45;;;;;;;10.60;5.70;;;;;;;10.30;100.00;102703.34;5115451;28;20122;-52
2023/05/30 04:24:10;;;;;;;10.40;5.00;;;;;;;10.63;100.00;102774.34;5113668;28;20039;-53
2023/05/30 04:26:36;;;;;;;13.07;4.85;;;;;;;10.75;100.00;102779.59;5114717;28;20550;-49
2023/05/30 04:29:02;;;;;;;14.38;5.05;;;;;;;10.79;100.00;102783.13;5114709;28;20039;-54
2023/05/30 04:31:27;;;;;;;12.95;5.57;;;;;;;10.83;100.00;102795.41;5132910;28;20450;-49
2023/05/30 04:33:54;;;;;;;11.48;5.32;;;;;;;10.82;100.00;102797.16;5132972;28;20070;-49
2023/05/30 04:36:19;;;;;;;12.85;5.35;;;;;;;10.37;100.00;102724.38;5132951;28;20035;-49
2023/05/30 04:38:46;;;;;;;14.63;5.18;;;;;;;10.74;100.00;102791.00;5129409;28;20099;-52
2023/05/30 04:41:18;;;;;;;9.10;4.80;;;;;;;10.85;100.00;102797.16;5132796;28;20121;-53
2023/05/30 04:43:44;;;;;;;13.00;5.40;;;;;;;10.88;100.00;102797.16;5115377;28;20176;-53
2023/05/30 04:46:09;;;;;;;14.32;5.40;;;;;;;10.90;100.00;102795.38;5132673;28;20118;-52
2023/05/30 04:48:36;;;;;;;14.70;5.65;;;;;;;10.84;100.00;102798.03;5114718;28;20034;-55
2023/05/30 04:51:02;;;;;;;12.85;4.95;;;;;;;10.75;100.00;102784.88;5133023;28;20124;-53
2023/05/30 04:53:28;;;;;;;11.18;5.03;;;;;;;10.52;100.00;102729.63;5133223;27;20496;-52
2023/05/30 04:55:54;;;;;;;15.52;5.25;;;;;;;10.85;100.00;102788.38;5119148;27;20048;-53
2023/05/30 04:58:19;;;;;;;10.70;5.32;;;;;;;10.87;100.00;102771.66;5116171;28;20036;-53
2023/05/30 05:00:45;;;;;;;12.60;4.90;;;;;;;11.09;100.00;102791.78;5097458;27;20038;-50
2023/05/30 05:03:10;;;;;;;9.38;4.80;;;;;;;11.14;100.00;102805.84;5118664;27;20397;-54
2023/05/30 05:05:35;;;;;;;13.10;4.82;;;;;;;11.16;100.00;102795.28;5115844;28;20042;-54
2023/05/30 05:08:01;;;;;;;10.82;4.55;;;;;;;10.82;100.00;102735.69;5115801;28;20027;-54
2023/05/30 05:10:26;;;;;;;7.80;4.18;;;;;;;11.29;100.00;102821.59;5115913;28;20032;-53
2023/05/30 05:12:52;;;;;;;9.88;4.47;;;;;;;11.26;100.00;102826.91;5115977;28;20535;-55
2023/05/30 05:15:17;;;;;;;8.55;4.25;;;;;;;11.26;100.00;102799.66;5080529;28;20532;-57
2023/05/30 05:17:43;;;;;;;10.63;4.32;;;;;;;11.39;100.00;102811.88;5115759;28;20031;-54
2023/05/30 05:20:09;;;;;;;12.65;4.40;;;;;;;11.27;100.00;102797.00;5097650;28;20032;-53
2023/05/30 05:22:35;;;;;;;11.25;4.75;;;;;;;11.40;100.00;102808.38;5116872;27;20746;-49
2023/05/30 05:25:01;;;;;;;11.15;4.20;;;;;;;11.12;100.00;102740.84;5135987;27;20031;-57
2023/05/30 05:27:27;;;;;;;11.10;4.47;;;;;;;11.57;100.00;102818.81;5136178;27;20035;-49
2023/05/30 05:29:52;;;;;;;10.68;4.40;;;;;;;11.60;100.00;102810.91;5135411;27;20023;-53
2023/05/30 05:32:18;;;;;;;7.93;4.45;;;;;;;11.61;100.00;102807.41;5135844;27;20176;-54
2023/05/30 05:34:43;;;;;;;9.95;4.57;;;;;;;11.46;100.00;102762.63;5115783;27;20031;-49
2023/05/30 05:37:08;;;;;;;9.93;4.13;;;;;;;11.72;100.00;102810.88;5133855;27;20398;-50
2023/05/30 05:39:34;;;;;;;8.98;3.85;;;;;;;11.65;100.00;102807.34;5100460;27;20460;-53
2023/05/30 05:42:01;;;;;;;11.35;4.10;;;;;;;11.69;100.00;102827.59;5135853;27;20035;-52
2023/05/30 05:44:27;;;;;;;11.13;3.88;;;;;;;11.73;100.00;102815.28;5135668;27;20667;-54
2023/05/30 05:46:52;;;;;;;9.13;4.82;;;;;;;11.63;100.00;102798.59;5135663;27;20024;-50
2023/05/30 05:49:17;;;;;;;15.68;3.60;;;;;;;11.74;100.00;102819.66;5100462;27;20084;-49
2023/05/30 05:51:43;;;;;;;7.68;3.40;;;;;;;12.01;100.00;102818.59;5132409;27;20151;-52
2023/05/30 05:54:08;;;;;;;10.32;3.90;;;;;;;12.17;100.00;102821.09;5117241;27;20408;-54
2023/05/30 05:56:33;;;;;;;7.80;3.60;;;;;;;12.07;100.00;102802.72;5113458;28;20105;-51
2023/05/30 05:58:59;;;;;;;8.90;3.90;;;;;;;11.90;100.00;102801.97;5114812;28;20032;-50
2023/05/30 06:01:24;;;;;;;9.40;4.30;;;;;;;12.16;100.00;102818.50;5115025;28;20436;-50
2023/05/30 06:03:50;;;;;;;9.35;3.90;;;;;;;12.29;100.00;102831.56;5114769;28;20531;-50
2023/05/30 06:06:15;;;;;;;12.27;3.85;;;;;;;12.16;100.00;102824.66;5114248;28;20030;-55
2023/05/30 06:08:44;;;;;;;9.88;4.70;;;;;;;12.20;100.00;102836.06;5114662;28;20031;-55
2023/05/30 06:11:10;;;;;;;11.55;3.97;;;;;;;11.69;100.00;102747.53;5109335;28;20031;-54
2023/05/30 06:13:35;;;;;;;10.90;3.92;;;;;;;12.18;100.00;102828.16;5094707;28;20039;-53
2023/05/30 06:16:00;;;;;;;11.10;4.38;;;;;;;12.12;100.00;102822.03;5113806;28;20046;-50
2023/05/30 06:18:26;;;;;;;11.18;3.83;;;;;;;11.88;100.00;102754.47;5113599;28;20046;-51
2023/05/30 06:20:51;;;;;;;11.23;3.88;;;;;;;12.35;100.00;102820.09;5114657;28;20067;-49
2023/05/30 06:23:16;;;;;;;8.63;3.65;;;;;;;12.34;100.00;102799.88;5114302;28;20472;-51
2023/05/30 06:25:42;;;;;;;11.05;3.88;;;;;;;12.55;100.00;102831.34;5113292;28;20542;-51
2023/05/30 06:28:07;;;;;;;11.98;3.80;;;;;;;12.27;100.00;102792.88;5114275;27;20104;-51
2023/05/30 06:30:32;;;;;;;10.82;4.63;;;;;;;12.50;100.00;102840.22;5102920;28;20036;-53
2023/05/30 06:32:58;;;;;;;11.23;3.97;;;;;;;12.51;100.00;102827.00;5093568;28;20052;-50
2023/05/30 06:35:23;;;;;;;9.27;3.78;;;;;;;12.53;100.00;102819.94;5093283;28;20036;-51
2023/05/30 06:37:48;;;;;;;10.55;4.22;;;;;;;12.32;100.00;102768.19;5114016;28;20063;-50
2023/05/30 06:40:14;;;;;;;8.65;3.40;;;;;;;12.48;100.00;102763.63;5108650;28;20039;-54
2023/05/30 06:42:39;;;;;;;7.65;4.13;;;;;;;13.09;100.00;102847.59;5111871;28;20063;-55
2023/05/30 06:45:05;;;;;;;7.28;3.90;;;;;;;12.36;100.00;102724.13;5107906;28;20039;-51
2023/05/30 06:47:31;;;;;;;10.07;4.32;;;;;;;13.16;100.00;102850.19;5108325;28;20461;-53
2023/05/30 06:49:56;;;;;;;9.50;4.45;;;;;;;12.98;100.00;102802.75;5109556;27;20047;-54
2023/05/30 06:52:21;;;;;;;13.05;4.43;;;;;;;13.38;100.00;102851.66;5093338;28;20040;-52
2023/05/30 06:54:46;;;;;;;8.43;3.92;;;;;;;13.36;100.00;102858.75;5104060;28;20039;-52
2023/05/30 06:57:12;;;;;;;11.27;3.55;;;;;;;13.42;100.00;102856.03;5113793;28;20039;-51
2023/05/30 06:59:37;;;;;;;10.80;4.00;;;;;;;13.23;100.00;102795.41;5098522;28;20035;-51
2023/05/30 07:02:03;;;;;;;10.32;3.10;;;;;;;13.39;100.00;102797.00;5127969;27;20035;-54
2023/05/30 07:04:28;;;;;;;8.48;3.53;;;;;;;13.61;100.00;102850.47;5122618;27;20112;-53
2023/05/30 07:06:54;;;;;;;11.43;3.88;;;;;;;13.09;100.00;102800.88;5113117;28;20058;-54
2023/05/30 07:09:19;;;;;;;12.07;4.45;;;;;;;13.58;100.00;102861.09;5113056;27;20027;-54
2023/05/30 07:11:45;;;;;;;10.23;3.35;;;;;;;13.71;100.00;102850.38;5113456;28;20053;-53
2023/05/30 07:14:11;;;;;;;17.23;5.28;;;;;;;13.69;100.00;102856.56;5111839;27;20031;-50
2023/05/30 07:16:37;;;;;;;16.88;3.83;;;;;;;13.57;100.00;102780.88;5112716;28;20035;-55
2023/05/30 07:19:02;;;;;;;10.65;4.03;;;;;;;14.14;100.00;102860.31;5113460;27;20023;-51
2023/05/30 07:21:28;;;;;;;8.23;4.00;;;;;;;14.17;100.00;102858.50;5119375;27;20031;-51
2023/05/30 07:23:55;;;;;;;10.40;3.83;;;;;;;14.31;100.00;102859.16;5095132;28;20039;-49
2023/05/30 07:26:21;;;;;;;14.32;4.53;;;;;;;14.62;100.00;102859.59;5113164;28;20489;-47
2023/05/30 07:28:46;;;;;;;11.82;4.38;;;;;;;14.12;100.00;102785.31;5075780;28;20032;-50
2023/05/30 07:31:12;;;;;;;11.10;4.57;;;;;;;14.43;100.00;102827.22;5112176;27;20432;-46
2023/05/30 07:33:37;;;;;;;12.60;4.18;;;;;;;14.81;100.00;102791.19;5092315;28;20035;-49
2023/05/30 07:36:02;;;;;;;9.57;3.80;;;;;;;14.87;100.00;102852.94;5107198;27;20043;-52
2023/05/30 07:38:28;;;;;;;10.10;4.18;;;;;;;14.70;100.00;102851.50;5109078;27;20042;-50
2023/05/30 07:40:53;;;;;;;12.18;4.10;;;;;;;14.49;100.00;102781.19;5112129;28;20040;-50
2023/05/30 07:43:18;;;;;;;9.65;4.18;;;;;;;15.71;100.00;102844.19;5110685;28;20446;-53
2023/05/30 07:45:44;;;;;;;11.00;4.28;;;;;;;15.24;100.00;102786.78;5111404;28;20480;-56
2023/05/30 07:48:09;;;;;;;17.38;5.57;;;;;;;15.01;100.00;102787.25;5110718;27;20032;-55
2023/05/30 07:50:35;;;;;;;13.82;4.60;;;;;;;15.41;100.00;102781.13;5110402;28;20058;-53
2023/05/30 07:53:00;;;;;;;14.35;4.20;;;;;;;15.44;100.00;102848.25;5121651;27;20031;-53
2023/05/30 07:55:26;;;;;;;9.25;3.60;;;;;;;15.48;100.00;102859.72;5128898;27;20095;-54
2023/05/30 07:57:52;;;;;;;7.93;3.50;;;;;;;15.56;100.00;102853.34;5124777;27;20368;-55
2023/05/30 08:00:17;;;;;;;8.38;4.20;;;;;;;16.12;100.00;102857.41;5112586;28;20038;-52
2023/05/30 08:02:43;;;;;;;12.77;4.05;;;;;;;16.31;100.00;102792.25;5123253;27;20050;-51
2023/05/30 08:05:08;;;;;;;14.07;4.72;;;;;;;15.73;100.00;102864.47;5111228;28;20391;-52
2023/05/30 08:07:34;;;;;;;10.23;3.88;;;;;;;15.77;100.00;102871.47;5117737;28;20092;-52
2023/05/30 08:09:59;;;;;;;8.73;4.10;;;;;;;15.44;100.00;102858.03;5108875;28;20571;-52
2023/05/30 08:12:31;;;;;;;14.90;4.60;;;;;;;15.47;100.00;102850.88;5109755;28;20034;-55
2023/05/30 08:14:56;;;;;;;11.48;4.00;;;;;;;15.84;100.00;102847.44;5110395;28;20176;-51
2023/05/30 08:17:24;;;;;;;10.98;4.20;;;;;;;15.94;100.00;102848.97;5111778;28;20087;-54
2023/05/30 08:19:52;;;;;;;10.25;4.47;;;;;;;15.64;100.00;102846.09;5092796;28;20398;-54
2023/05/30 08:22:21;;;;;;;12.35;4.38;;;;;;;15.70;100.00;102845.94;5077391;28;20420;-53
2023/05/30 08:24:49;;;;;;;13.82;4.25;;;;;;;15.60;100.00;102843.53;5115440;28;20047;-54
2023/05/30 08:27:14;;;;;;;10.82;4.65;;;;;;;15.48;100.00;102770.38;5096479;28;20036;-50
2023/05/30 08:29:40;;;;;;;10.68;4.38;;;;;;;16.33;100.00;102838.28;5114993;28;20038;-49
2023/05/30 08:32:06;;;;;;;10.95;3.88;;;;;;;16.54;100.00;102814.75;5115210;28;20122;-50
2023/05/30 08:34:31;;;;;;;12.70;4.47;;;;;;;16.78;100.00;102835.41;5096839;28;20165;-53
2023/05/30 08:36:57;;;;;;;12.88;4.10;;;;;;;16.80;100.00;102842.44;5115031;28;20071;-51
2023/05/30 08:39:25;;;;;;;10.73;4.38;;;;;;;16.87;100.00;102845.78;5116025;28;20120;-52
2023/05/30 08:41:50;;;;;;;10.65;4.00;;;;;;;16.92;100.00;102833.25;5112797;28;20525;-51
2023/05/30 08:44:16;;;;;;;10.82;3.72;;;;;;;16.75;100.00;102723.78;5131774;27;20059;-53
2023/05/30 08:46:45;;;;;;;8.05;3.70;;;;;;;17.77;100.00;102852.09;5115231;27;20042;-53
2023/05/30 08:49:13;;;;;;;10.88;3.95;;;;;;;18.13;100.00;102832.28;5117487;27;20033;-54
2023/05/30 08:51:41;;;;;;;9.77;4.00;;;;;;;18.29;100.00;102804.22;5116579;27;20411;-50
2023/05/30 08:54:11;;;;;;;10.25;4.15;;;;;;;18.70;100.00;102826.84;5135081;27;20031;-52
2023/05/30 08:56:39;;;;;;;10.20;3.42;;;;;;;18.95;100.00;102821.47;5134733;27;20793;-53
2023/05/30 08:59:08;;;;;;;11.57;4.15;;;;;;;19.07;100.00;102835.28;5111278;27;20451;-55
2023/05/30 09:01:33;;;;;;;6.72;2.90;;;;;;;20.03;100.00;102844.97;5096161;28;20112;-53
2023/05/30 09:03:58;;;;;;;9.50;3.78;;;;;;;19.51;100.00;102806.94;5095881;28;20055;-52
2023/05/30 09:06:25;;;;;;;9.73;3.22;;;;;;;19.75;100.00;102838.97;5095316;28;20542;-53
2023/05/30 09:08:51;;;;;;;8.43;3.92;;;;;;;19.25;100.00;102835.53;5079098;28;20535;-50
2023/05/30 09:11:18;;;;;;;11.30;4.28;;;;;;;18.45;100.00;102772.53;5096110;28;20035;-54
2023/05/30 09:13:45;;;;;;;10.18;3.88;;;;;;;17.94;100.00;102777.84;5114022;28;20099;-54
2023/05/30 09:16:11;;;;;;;11.65;3.75;;;;;;;17.91;100.00;102762.84;5098489;28;20375;-55
2023/05/30 09:18:36;;;;;;;12.70;4.10;;;;;;;17.75;100.00;102812.19;5095984;28;20040;-55
2023/05/30 09:21:02;;;;;;;9.38;3.80;;;;;;;17.51;100.00;102806.72;5113905;28;20038;-51
2023/05/30 09:23:29;;;;;;;10.45;3.90;;;;;;;17.69;100.00;102809.69;5113698;28;20032;-56
2023/05/30 09:25:57;;;;;;;8.73;3.50;;;;;;;18.17;100.00;102796.63;5113777;28;20031;-54
2023/05/30 09:28:24;;;;;;;9.15;3.65;;;;;;;18.57;100.00;102805.94;5113517;28;20497;-53
2023/05/30 09:30:55;;;;;;;14.93;4.35;;;;;;;18.62;100.00;102817.34;5095561;28;20032;-52
2023/05/30 09:33:20;;;;;;;11.35;3.75;;;;;;;18.80;100.00;102803.34;5127276;27;20039;-55
2023/05/30 09:35:48;;;;;;;9.07;4.00;;;;;;;18.78;100.00;102813.22;5098453;27;20439;-54
2023/05/30 09:38:24;;;;;;;13.73;4.00;;;;;;;18.88;100.00;102735.47;5133768;27;20640;-56
2023/05/30 09:40:56;;;;;;;11.68;3.85;;;;;;;19.47;100.00;102796.41;5133490;27;20057;-53
2023/05/30 09:43:34;;;;;;;10.93;4.85;;;;;;;18.61;100.00;102752.47;5134112;27;20054;-53
2023/05/30 09:46:04;;;;;;;7.68;3.78;;;;;;;19.64;100.00;102824.22;5134051;27;20027;-55
2023/05/30 09:48:30;;;;;;;9.95;3.63;;;;;;;19.71;100.00;102814.16;5104054;28;20031;-55
2023/05/30 09:51:02;;;;;;;9.55;3.90;;;;;;;20.34;100.00;102817.88;5112255;28;20020;-56
2023/05/30 09:53:33;;;;;;;12.25;4.00;;;;;;;19.98;100.00;102769.44;5112466;28;20032;-53
2023/05/30 09:55:59;;;;;;;9.38;3.78;;;;;;;20.51;100.00;102821.59;5112503;28;20444;-55
2023/05/30 09:58:24;;;;;;;10.00;3.30;;;;;;;19.32;100.00;102762.28;5094834;28;20024;-53
2023/05/30 10:00:54;;;;;;;6.65;3.15;;;;;;;20.06;100.00;102752.16;5113241;28;20104;-52
2023/05/30 10:03:20;;;;;;;9.45;3.63;;;;;;;19.67;100.00;102830.41;5121201;27;20039;-54
2023/05/30 10:05:46;;;;;;;8.15;4.00;;;;;;;19.67;100.00;102812.56;5126146;27;20042;-55
2023/05/30 10:08:13;;;;;;;8.90;3.70;;;;;;;19.53;100.00;102742.75;5112523;27;20032;-54
2023/05/30 10:10:40;;;;;;;5.60;3.40;;;;;;;18.62;100.00;102726.66;5094738;28;20321;-55
2023/05/30 10:13:05;;;;;;;8.98;3.92;;;;;;;19.40;100.00;102808.28;5111429;28;20118;-54
2023/05/30 10:15:31;;;;;;;5.82;3.42;;;;;;;19.77;100.00;102733.75;5094695;28;20107;-55
2023/05/30 10:18:03;;;;;;;8.15;3.70;;;;;;;20.56;100.00;102751.81;5102891;27;20047;-55
2023/05/30 10:20:30;;;;;;;5.95;2.90;;;;;;;21.13;100.00;102815.31;5104482;27;20027;-57
2023/05/30 10:22:56;;;;;;;9.13;4.05;;;;;;;19.91;100.00;102773.28;5104725;28;20081;-54
2023/05/30 10:25:22;;;;;;;9.82;4.13;;;;;;;18.94;100.00;102763.72;5130010;27;20050;-54
2023/05/30 10:27:57;;;;;;;6.10;3.20;;;;;;;18.42;100.00;102738.00;5114113;27;20027;-55
2023/05/30 10:30:25;;;;;;;7.18;3.55;;;;;;;18.33;100.00;102795.16;5122850;27;20355;-57
2023/05/30 10:33:01;;;;;;;7.07;3.92;;;;;;;17.92;100.00;102806.34;5133058;27;20031;-53
2023/05/30 10:35:27;;;;;;;6.10;3.83;;;;;;;17.01;100.00;102753.19;5103228;27;20088;-52
2023/05/30 10:37:53;;;;;;;6.00;3.50;;;;;;;17.63;100.00;102809.88;5132368;27;20035;-55
2023/05/30 10:41:09;;;;;;;7.63;4.00;;;;;;;17.60;100.00;102795.81;5132570;27;20379;-54
2023/05/30 10:43:53;;;;;;;6.72;3.60;;;;;;;17.42;100.00;102792.72;5047984;28;20123;-55
2023/05/30 10:46:18;;;;;;;5.93;3.33;;;;;;;17.02;100.00;102808.13;5048852;28;20143;-52
2023/05/30 10:49:02;;;;;;;4.78;3.25;;;;;;;16.84;100.00;102798.00;5096808;27;20118;-53
2023/05/30 10:51:27;;;;;;;6.70;3.70;;;;;;;16.77;100.00;102788.44;5113830;27;20350;-54
2023/05/30 10:53:53;;;;;;;7.38;3.75;;;;;;;16.37;100.00;102774.44;5114234;27;20062;-50
2023/05/30 10:56:40;;;;;;;7.90;3.90;;;;;;;16.63;100.00;102791.47;5132485;27;20066;-52
2023/05/30 10:59:24;;;;;;;6.63;3.80;;;;;;;16.40;100.00;102767.25;5131138;27;20047;-55
2023/05/30 11:02:05;;;;;;;6.65;3.97;;;;;;;16.12;100.00;102768.84;5113929;27;20034;-54
2023/05/30 11:04:36;;;;;;;5.82;5.10;;;;;;;15.94;100.00;102771.94;5132522;27;20035;-54
2023/05/30 11:07:04;;;;;;;8.98;5.18;;;;;;;15.69;100.00;102782.28;5096907;27;20055;-52
2023/05/30 11:09:29;;;;;;;5.50;4.63;;;;;;;15.17;100.00;102702.94;5114054;27;20031;-52
2023/05/30 11:11:56;;;;;;;10.10;4.75;;;;;;;15.49;100.00;102766.81;5132289;27;20155;-52
2023/05/30 11:14:30;;;;;;;5.70;4.60;;;;;;;15.17;100.00;102706.47;5132267;27;20073;-51